Bombala Post Office, New South Wales

8:00 AM AEDT on November 28, 2014 (GMT +1100)
Delegate | Change Station
CLOSE
Current Station
Personal Weather Station
Location: Delegate, NEW SOUTH WALES
Elevation: 2520 ft
Nearby Weather Stations

Elev 2520 ft 37.04 °S, 148.93 °E | Updated 29 minutes ago

Mostly Cloudy
Mostly Cloudy
43.9 °F
Feels Like 44 °F
N
2.2
Wind Variable Wind from SE
Gusts 3.1 mph

Today
High -- | Low -- °F
--% Chance of Precip.
Yesterday
High -- | Low -- °F
Precip. -- in
5:38 AM 8:03 PM
Waxing Crescent, 33% visible
Pressure 30.21 in
Visibility 6.2 miles
Clouds Mostly Cloudy 1300 ft
Windchill 44 °F
Dew Point 44 °F
Humidity 99%
Rainfall 0.00 in
Snow Depth Not available.
UV 1 out of 12
Pollen Not available.
Air Quality Not available.
Flu Activity Not available.
SPECI YCOM 272030Z AUTO 05006KT 9999 // BKN013 10/09 Q1023

More Conditions Fewer Conditions

Pressure 30.21 in
Visibility 6.2 miles
Clouds Mostly Cloudy 1300 ft
Windchill 44 °F
Dew Point 44 °F
Humidity 99%
Rainfall 0.00 in
Snow Depth Not available.
UV 1 out of 12
Pollen Not available.
Air Quality Not available.
Flu Activity Not available.
SPECI YCOM 272030Z AUTO 05006KT 9999 // BKN013 10/09 Q1023

More Conditions Fewer Conditions

10-Day Weather Forecast

Almanac

Astronomy

Nov. 28, 2014 Rise Set
Actual Time
Civil Twilight
Nautical Twilight
Astronomical Twilight
Moon
Length of Visible Light
Length of Day
Tomorrow will be .
, % of the Moon is Illuminated

Today's Extremes

Country Highs Country Lows

Community

WunderPhotos

Upload Photos

1,774,100 photos uploaded!

WunderBlogs® & News

Nearby

Air Quality

  Air Quality AQ Index Pollutant
Not available.

Snow Depth

Station Depth Elevation

Earthquake Activity

City Distance Mag. Time & Date
Minimum magnitude displayed is 2.5.

Coastal Water Temperatures

Place Temperature

Nearby Weather Stations